createdAt,value
2024-04-18T00:01:44.210Z,10.80
2024-04-18T00:04:14.777Z,10.80
2024-04-18T00:06:45.183Z,10.70
2024-04-18T00:09:20.062Z,10.70
2024-04-18T00:11:48.302Z,10.70
2024-04-18T00:14:18.505Z,10.60
2024-04-18T00:16:46.143Z,10.60
2024-04-18T00:19:19.845Z,10.60
2024-04-18T00:22:04.235Z,10.60
2024-04-18T00:24:33.006Z,10.60
2024-04-18T00:27:23.459Z,10.50
2024-04-18T00:29:51.210Z,10.50
2024-04-18T00:32:21.482Z,10.50
2024-04-18T00:35:08.108Z,10.50
2024-04-18T00:37:41.459Z,10.50
2024-04-18T00:40:09.914Z,10.50
2024-04-18T00:42:41.929Z,10.50
2024-04-18T00:45:09.773Z,10.50
2024-04-18T00:47:47.994Z,10.40
2024-04-18T00:50:43.171Z,10.50
2024-04-18T00:53:27.862Z,10.40
2024-04-18T00:55:56.043Z,10.60
2024-04-18T00:58:45.056Z,10.50
2024-04-18T01:01:23.721Z,10.50
2024-04-18T01:04:01.130Z,10.40
2024-04-18T01:06:43.060Z,10.40
2024-04-18T01:09:23.725Z,10.40
2024-04-18T01:12:09.434Z,10.50
2024-04-18T01:14:39.881Z,10.30
2024-04-18T01:17:07.568Z,10.30
2024-04-18T01:19:38.446Z,10.40
2024-04-18T01:22:06.422Z,10.30
2024-04-18T01:24:39.925Z,10.30
2024-04-18T01:27:10.216Z,10.30
2024-04-18T01:29:46.642Z,10.30
2024-04-18T01:32:35.294Z,10.30
2024-04-18T01:35:06.510Z,10.30
2024-04-18T01:37:49.385Z,10.20
2024-04-18T01:40:20.199Z,10.20
2024-04-18T01:43:10.096Z,10.20
2024-04-18T01:46:00.792Z,10.20
2024-04-18T01:48:28.665Z,10.10
2024-04-18T01:51:17.522Z,10.10
2024-04-18T01:53:45.293Z,10.10
2024-04-18T01:56:21.650Z,10.10
2024-04-18T01:58:51.919Z,10.00
2024-04-18T02:01:28.267Z,10.00
2024-04-18T02:03:56.159Z,10.00
2024-04-18T02:06:26.796Z,10.00
2024-04-18T02:08:54.705Z,10.00
2024-04-18T02:11:44.251Z,10.00
2024-04-18T02:14:14.984Z,10.00
2024-04-18T02:16:45.367Z,10.00
2024-04-18T02:19:27.619Z,10.00
2024-04-18T02:22:30.851Z,10.00
2024-04-18T02:25:27.897Z,10.00
2024-04-18T02:27:58.102Z,10.00
2024-04-18T02:30:29.288Z,10.00
2024-04-18T02:33:18.175Z,10.00
2024-04-18T02:35:46.696Z,10.10
2024-04-18T02:38:36.149Z,10.10
2024-04-18T02:41:05.180Z,10.10
2024-04-18T02:43:56.951Z,10.10
2024-04-18T02:46:27.860Z,10.10
2024-04-18T02:49:16.223Z,10.60
2024-04-18T02:51:57.520Z,10.10
2024-04-18T02:54:47.003Z,10.40
2024-04-18T02:57:14.897Z,10.10
2024-04-18T02:59:45.467Z,10.10
2024-04-18T03:02:25.587Z,10.10
2024-04-18T03:05:15.967Z,10.10
2024-04-18T03:07:44.689Z,10.10
2024-04-18T03:10:15.159Z,10.10
2024-04-18T03:13:01.143Z,10.10
2024-04-18T03:15:51.655Z,10.10
2024-04-18T03:18:22.526Z,10.10
2024-04-18T03:21:09.275Z,10.10
2024-04-18T03:23:43.096Z,10.10
2024-04-18T03:26:33.713Z,10.10
2024-04-18T03:29:01.398Z,10.20
2024-04-18T03:31:31.629Z,10.20
2024-04-18T03:34:01.996Z,10.10
2024-04-18T03:36:34.536Z,10.10
2024-04-18T03:39:04.773Z,10.10
2024-04-18T03:41:35.239Z,10.10
2024-04-18T03:44:18.332Z,10.10
2024-04-18T03:46:48.538Z,10.10
2024-04-18T03:49:40.262Z,10.10
2024-04-18T03:52:07.901Z,10.10
2024-04-18T03:54:55.302Z,10.10
2024-04-18T03:57:41.296Z,10.10
2024-04-18T04:00:12.867Z,10.10
2024-04-18T04:02:40.687Z,10.10
2024-04-18T04:05:13.536Z,10.10
2024-04-18T04:07:41.207Z,10.60
2024-04-18T04:10:11.501Z,10.00
2024-04-18T04:12:41.093Z,10.00
2024-04-18T04:15:12.268Z,10.00
2024-04-18T04:18:00.514Z,9.90
2024-04-18T04:20:47.327Z,10.00
2024-04-18T04:23:14.967Z,9.90
2024-04-18T04:26:00.690Z,10.00
2024-04-18T04:28:28.454Z,10.00
2024-04-18T04:30:58.706Z,9.90
2024-04-18T04:33:29.096Z,10.00
2024-04-18T04:36:02.200Z,9.90
2024-04-18T04:38:30.088Z,9.90
2024-04-18T04:41:00.567Z,9.90
2024-04-18T04:43:28.195Z,9.90
2024-04-18T04:45:58.443Z,9.90
2024-04-18T04:48:38.318Z,9.90
2024-04-18T04:51:18.435Z,10.00
2024-04-18T04:54:04.560Z,10.00
2024-04-18T04:56:44.117Z,10.00
2024-04-18T04:59:21.019Z,10.00
2024-04-18T05:01:53.942Z,10.00
2024-04-18T05:04:41.875Z,10.00
2024-04-18T05:07:34.875Z,10.00
2024-04-18T05:10:21.347Z,10.00
2024-04-18T05:12:52.119Z,10.00
2024-04-18T05:15:35.393Z,10.00
2024-04-18T05:18:05.848Z,10.00
2024-04-18T05:20:33.621Z,10.00
2024-04-18T05:23:08.137Z,10.00
2024-04-18T05:25:36.626Z,10.20
2024-04-18T05:33:14.254Z,9.70
2024-04-18T05:35:48.808Z,10.10
2024-04-18T05:38:22.867Z,10.10
2024-04-18T05:40:54.431Z,10.20
2024-04-18T05:43:45.333Z,10.20
2024-04-18T05:49:27.683Z,10.00
2024-04-18T05:52:15.553Z,10.30
2024-04-18T05:54:49.794Z,10.50
2024-04-18T05:57:39.275Z,10.60
2024-04-18T06:00:30.500Z,10.40
2024-04-18T06:03:02.568Z,10.80
2024-04-18T06:05:36.365Z,10.60
2024-04-18T06:08:20.587Z,10.30
2024-04-18T06:10:55.187Z,10.80
2024-04-18T06:13:28.548Z,10.60
2024-04-18T06:16:02.080Z,10.60
2024-04-18T06:19:00.901Z,10.50
2024-04-18T06:21:33.396Z,10.70
2024-04-18T06:24:13.751Z,10.70
2024-04-18T06:26:50.577Z,10.80
2024-04-18T06:29:22.260Z,10.70
2024-04-18T06:31:58.404Z,10.90
2024-04-18T06:35:13.384Z,11.10
2024-04-18T06:39:06.050Z,11.10
2024-04-18T06:46:42.670Z,11.20
2024-04-18T06:49:35.047Z,11.40
2024-04-18T06:52:33.648Z,11.20
2024-04-18T08:24:19.375Z,11.10
2024-04-18T08:26:49.763Z,11.40
2024-04-18T08:29:24.055Z,11.40
2024-04-18T08:31:55.825Z,11.50
2024-04-18T08:34:29.247Z,11.50
2024-04-18T08:37:00.912Z,11.50
2024-04-18T08:39:31.352Z,11.60
2024-04-18T08:42:03.010Z,11.50
2024-04-18T08:44:33.948Z,11.50
2024-04-18T08:47:05.121Z,11.50
2024-04-18T08:49:41.644Z,11.60
2024-04-18T08:52:15.578Z,11.60
2024-04-18T08:54:45.927Z,11.70
2024-04-18T08:57:21.589Z,11.80
2024-04-18T08:59:54.462Z,11.80
2024-04-18T09:02:24.807Z,11.80
2024-04-18T09:05:00.985Z,11.90
2024-04-18T09:07:31.231Z,11.90
2024-04-18T09:10:07.886Z,12.00
2024-04-18T09:12:39.428Z,11.90
2024-04-18T09:15:10.296Z,12.00
2024-04-18T09:17:40.569Z,12.00
2024-04-18T09:20:13.966Z,12.00
2024-04-18T09:22:45.257Z,12.00
2024-04-18T09:25:15.598Z,12.00
2024-04-18T09:27:45.771Z,12.00
2024-04-18T09:30:17.122Z,12.10
2024-04-18T09:32:47.863Z,12.10
2024-04-18T09:35:21.485Z,12.20
2024-04-18T09:37:56.839Z,12.40
2024-04-18T09:40:35.145Z,12.50
2024-04-18T09:43:17.266Z,12.50
2024-04-18T09:45:52.308Z,12.60
2024-04-18T09:48:24.133Z,12.70
2024-04-18T09:50:58.890Z,12.70
2024-04-18T09:53:30.037Z,12.70
2024-04-18T09:56:02.214Z,12.70
2024-04-18T09:58:33.064Z,12.80
2024-04-18T10:01:03.501Z,13.00
2024-04-18T10:03:33.901Z,13.10
2024-04-18T10:06:10.575Z,13.80
2024-04-18T10:08:44.183Z,13.30
2024-04-18T10:11:16.173Z,13.50
2024-04-18T10:13:46.747Z,13.50
2024-04-18T10:16:17.779Z,14.10
2024-04-18T10:18:50.857Z,13.80
2024-04-18T10:21:38.057Z,13.90
2024-04-18T10:24:22.188Z,14.00
2024-04-18T10:27:01.516Z,14.10
2024-04-18T10:29:31.971Z,14.20
2024-04-18T10:32:02.424Z,14.30
2024-04-18T10:34:33.936Z,14.40
2024-04-18T10:37:10.757Z,14.40
2024-04-18T11:20:28.508Z,15.40
2024-04-18T11:23:08.721Z,15.40
2024-04-18T11:25:43.931Z,15.40
2024-04-18T11:28:16.331Z,15.30
2024-04-18T11:30:46.743Z,15.40
2024-04-18T11:33:23.531Z,15.30
2024-04-18T11:35:56.785Z,15.30
2024-04-18T11:38:30.514Z,15.40
2024-04-18T11:41:01.835Z,15.40
2024-04-18T11:43:32.348Z,15.40
2024-04-18T11:46:03.216Z,15.50
2024-04-18T11:48:33.809Z,15.50
2024-04-18T11:51:07.314Z,15.50
2024-04-18T11:53:37.630Z,15.60
2024-04-18T11:56:08.239Z,15.70
2024-04-18T11:58:38.752Z,15.70
2024-04-18T12:01:11.078Z,15.70
2024-04-18T12:03:43.073Z,15.80
2024-04-18T12:06:34.913Z,15.90
2024-04-18T12:09:05.236Z,16.00
2024-04-18T12:11:36.181Z,16.10
2024-04-18T12:14:15.832Z,16.00
2024-04-18T12:16:59.223Z,16.10
2024-04-18T12:19:45.756Z,16.10
2024-04-18T12:22:37.714Z,16.10
2024-04-18T12:25:18.113Z,15.70
2024-04-18T12:27:50.728Z,16.40
2024-04-18T12:30:34.460Z,16.10
2024-04-18T12:33:23.929Z,16.10
2024-04-18T12:35:54.636Z,16.00
2024-04-18T12:38:27.596Z,16.00
2024-04-18T12:41:05.751Z,15.90
2024-04-18T12:43:37.939Z,16.00
2024-04-18T12:46:27.240Z,16.10
2024-04-18T12:48:58.693Z,16.20
2024-04-18T12:51:29.766Z,16.30
2024-04-18T12:54:03.037Z,16.40
2024-04-18T12:56:52.262Z,16.40
2024-04-18T12:59:25.838Z,16.50
2024-04-18T13:01:56.578Z,16.60
2024-04-18T13:04:27.060Z,16.60
2024-04-18T13:06:58.460Z,16.60
2024-04-18T13:09:35.104Z,16.50
2024-04-18T13:12:06.238Z,16.50
2024-04-18T13:14:55.209Z,16.50
2024-04-18T13:17:25.760Z,16.60
2024-04-18T13:19:56.152Z,16.50
2024-04-18T13:22:26.987Z,16.60
2024-04-18T13:24:59.869Z,16.50
2024-04-18T13:27:32.397Z,16.60
2024-04-18T13:30:07.440Z,16.60
2024-04-18T13:32:39.527Z,16.60
2024-04-18T13:35:11.249Z,16.60
2024-04-18T13:37:41.690Z,16.60
2024-04-18T13:40:23.454Z,16.70
2024-04-18T13:43:01.302Z,16.80
2024-04-18T13:45:33.501Z,16.90
2024-04-18T13:48:04.459Z,17.00
2024-04-18T13:50:48.350Z,17.00
2024-04-18T13:53:18.726Z,17.00
2024-04-18T13:55:52.450Z,16.90
2024-04-18T13:58:26.284Z,16.90
2024-04-18T14:01:02.197Z,16.90
2024-04-18T14:03:33.295Z,16.80
2024-04-18T14:06:11.584Z,16.80
2024-04-18T14:08:42.456Z,16.70
2024-04-18T14:11:33.709Z,16.70
2024-04-18T14:14:11.468Z,16.70
2024-04-18T14:17:17.573Z,16.80
2024-04-18T14:20:06.560Z,16.70
2024-04-18T14:22:47.961Z,16.70
2024-04-18T14:25:18.471Z,16.70
2024-04-18T14:28:20.308Z,16.70
2024-04-18T14:31:18.036Z,16.80
2024-04-18T14:33:51.414Z,16.80
2024-04-18T14:36:22.228Z,16.80
2024-04-18T14:38:52.606Z,16.70
2024-04-18T14:41:22.819Z,16.70
2024-04-18T14:44:00.370Z,16.70
2024-04-18T14:46:31.588Z,16.70
2024-04-18T14:49:21.851Z,16.90
2024-04-18T14:51:58.584Z,16.60
2024-04-18T14:54:31.850Z,16.60
2024-04-18T14:57:05.573Z,16.60
2024-04-18T14:59:44.661Z,16.60
2024-04-18T15:02:15.241Z,16.50
2024-04-18T15:05:03.898Z,16.50
2024-04-18T15:07:34.162Z,16.50
2024-04-18T15:10:21.248Z,16.50
2024-04-18T15:13:01.058Z,16.50
2024-04-18T15:15:34.019Z,16.50
2024-04-18T15:18:04.991Z,16.50
2024-04-18T15:20:36.066Z,16.50
2024-04-18T15:23:14.817Z,16.50
2024-04-18T15:25:46.630Z,16.40
2024-04-18T15:28:17.825Z,16.40
2024-04-18T15:30:51.094Z,16.40
2024-04-18T15:33:25.890Z,16.30
2024-04-18T15:35:58.135Z,16.30
2024-04-18T15:38:28.734Z,16.20
2024-04-18T15:41:17.783Z,16.20
2024-04-18T15:43:49.353Z,16.10
2024-04-18T15:46:41.508Z,16.10
2024-04-18T15:49:13.066Z,16.10
2024-04-18T15:51:46.572Z,16.10
2024-04-18T15:54:18.232Z,16.10
2024-04-18T15:56:48.656Z,16.40
2024-04-18T15:59:37.387Z,16.10
2024-04-18T16:02:11.590Z,16.20
2024-04-18T16:04:47.873Z,16.20
2024-04-18T16:07:19.708Z,16.20
2024-04-18T16:09:57.045Z,16.10
2024-04-18T16:12:27.713Z,16.10
2024-04-18T16:15:12.908Z,16.10
2024-04-18T16:18:07.991Z,16.10
2024-04-18T16:20:56.781Z,16.10
2024-04-18T16:23:43.474Z,16.00
2024-04-18T16:26:16.135Z,16.00
2024-04-18T16:28:50.259Z,16.00
2024-04-18T16:31:20.587Z,16.00
2024-04-18T16:34:13.863Z,16.00
2024-04-18T16:36:49.787Z,15.90
2024-04-18T16:43:11.864Z,15.90
2024-04-18T16:46:01.386Z,15.50
2024-04-18T16:48:31.696Z,15.90
2024-04-18T16:51:04.977Z,15.90
2024-04-18T16:53:56.466Z,15.90
2024-04-18T16:56:26.841Z,15.90
2024-04-18T16:58:57.749Z,15.90
2024-04-18T17:01:28.376Z,15.90
2024-04-18T17:03:59.666Z,16.00
2024-04-18T17:06:45.702Z,16.00
2024-04-18T17:09:19.125Z,16.00
2024-04-18T17:11:49.666Z,16.00
2024-04-18T17:14:41.635Z,15.90
2024-04-18T17:17:12.475Z,16.00
2024-04-18T17:20:12.896Z,16.00
2024-04-18T17:22:46.586Z,15.90
2024-04-18T17:25:18.024Z,15.90
2024-04-18T17:27:48.368Z,15.90
2024-04-18T17:30:19.003Z,15.90
2024-04-18T17:32:50.780Z,15.90
2024-04-18T17:35:46.030Z,15.80
2024-04-18T17:38:19.472Z,15.80
2024-04-18T17:41:16.256Z,15.80
2024-04-18T17:43:47.859Z,15.80
2024-04-18T17:46:19.509Z,15.80
2024-04-18T17:48:50.631Z,15.70
2024-04-18T17:51:21.415Z,15.70
2024-04-18T17:53:54.624Z,15.70
2024-04-18T17:56:25.213Z,15.70
2024-04-18T17:58:55.452Z,15.60
2024-04-18T18:01:26.333Z,15.60
2024-04-18T18:04:17.844Z,15.60
2024-04-18T18:06:48.263Z,15.50
2024-04-18T18:09:21.565Z,15.50
2024-04-18T18:11:53.068Z,15.40
2024-04-18T18:14:23.544Z,15.50
2024-04-18T18:17:03.461Z,15.40
2024-04-18T18:19:34.042Z,15.40
2024-04-18T18:22:05.285Z,15.40
2024-04-18T18:24:40.563Z,15.30
2024-04-18T18:27:11.760Z,15.40
2024-04-18T18:29:40.728Z,15.40
2024-04-18T18:32:14.780Z,15.30
2024-04-18T18:34:42.982Z,15.30
2024-04-18T18:37:13.625Z,15.30
2024-04-18T18:39:50.495Z,15.20
2024-04-18T18:42:18.531Z,15.20
2024-04-18T18:44:49.293Z,15.20
2024-04-18T18:47:17.411Z,15.10
2024-04-18T18:49:53.775Z,15.10
2024-04-18T18:52:23.814Z,15.00
2024-04-18T18:54:57.017Z,15.00
2024-04-18T18:57:25.033Z,15.30
2024-04-18T18:59:55.452Z,14.90
2024-04-18T19:02:23.330Z,14.90
2024-04-18T19:05:05.603Z,14.80
2024-04-18T19:07:33.712Z,14.80
2024-04-18T19:10:07.970Z,14.80
2024-04-18T19:12:36.646Z,14.70
2024-04-18T19:15:09.601Z,14.70
2024-04-18T19:17:40.018Z,14.60
2024-04-18T19:20:11.213Z,14.60
2024-04-18T19:22:38.972Z,14.60
2024-04-18T19:25:11.989Z,14.50
2024-04-18T19:27:39.694Z,14.40
2024-04-18T19:30:11.254Z,14.40
2024-04-18T19:32:39.236Z,14.40
2024-04-18T19:35:27.501Z,14.30
2024-04-18T19:37:56.010Z,14.30
2024-04-18T19:40:50.023Z,14.20
2024-04-18T19:43:17.755Z,14.20
2024-04-18T19:45:56.994Z,14.10
2024-04-18T19:48:25.002Z,14.10
2024-04-18T19:50:55.750Z,14.10
2024-04-18T19:53:24.344Z,14.10
2024-04-18T19:55:58.330Z,14.00
2024-04-18T19:58:26.528Z,14.00
2024-04-18T20:00:56.971Z,13.90
2024-04-18T20:03:25.329Z,13.90
2024-04-18T20:05:57.627Z,13.80
2024-04-18T20:08:45.893Z,13.80
2024-04-18T20:11:19.991Z,13.70
2024-04-18T20:13:47.740Z,13.70
2024-04-18T20:16:18.554Z,13.60
2024-04-18T20:18:47.814Z,13.60
2024-04-18T20:21:19.539Z,13.60
2024-04-18T20:23:55.534Z,13.50
2024-04-18T20:26:30.465Z,13.40
2024-04-18T20:29:13.322Z,13.40
2024-04-18T20:31:43.716Z,13.40
2024-04-18T20:34:11.577Z,13.30
2024-04-18T20:36:41.989Z,13.30
2024-04-18T20:39:09.843Z,13.30
2024-04-18T20:41:43.002Z,13.30
2024-04-18T20:44:11.074Z,13.30
2024-04-18T20:46:41.769Z,13.30
2024-04-18T20:49:09.652Z,13.30
2024-04-18T20:51:40.272Z,13.70
2024-04-18T20:54:09.443Z,13.20
2024-04-18T20:56:42.936Z,13.20
2024-04-18T20:59:15.742Z,13.20
2024-04-18T21:01:46.145Z,13.20
2024-04-18T21:04:14.143Z,13.20
2024-04-18T21:06:44.534Z,13.20
2024-04-18T21:09:12.796Z,13.10
2024-04-18T21:11:45.710Z,13.10
2024-04-18T21:14:14.060Z,13.10
2024-04-18T21:16:44.884Z,13.10
2024-04-18T21:19:15.116Z,13.00
2024-04-18T21:21:47.420Z,13.10
2024-04-18T21:24:15.206Z,13.00
2024-04-18T21:26:54.184Z,13.00
2024-04-18T21:29:22.191Z,13.00
2024-04-18T21:31:52.527Z,13.00
2024-04-18T21:34:20.242Z,13.00
2024-04-18T21:36:53.606Z,12.90
2024-04-18T21:39:21.254Z,12.90
2024-04-18T21:41:54.218Z,13.00
2024-04-18T21:44:22.327Z,12.90
2024-04-18T21:46:52.539Z,12.90
2024-04-18T21:49:20.599Z,12.80
2024-04-18T21:51:50.974Z,12.80
2024-04-18T21:54:18.712Z,12.80
2024-04-18T21:56:49.315Z,12.70
2024-04-18T21:59:19.558Z,12.70
2024-04-18T22:01:49.940Z,12.60
2024-04-18T22:04:17.907Z,12.70
2024-04-18T22:06:49.062Z,12.60
2024-04-18T22:09:17.550Z,12.60
2024-04-18T22:11:48.562Z,12.60
2024-04-18T22:14:16.307Z,12.60
2024-04-18T22:16:49.371Z,12.50
2024-04-18T22:19:17.088Z,12.50
2024-04-18T22:21:47.650Z,12.50
2024-04-18T22:24:15.600Z,12.50
2024-04-18T22:26:46.402Z,12.40
2024-04-18T22:29:14.108Z,12.40
2024-04-18T22:31:44.463Z,12.30
2024-04-18T22:34:24.669Z,12.30
2024-04-18T22:37:04.039Z,12.30
2024-04-18T22:39:32.049Z,12.30
2024-04-18T22:42:02.859Z,12.30
2024-04-18T22:44:32.796Z,13.00
2024-04-18T22:47:03.007Z,12.20
2024-04-18T22:49:35.362Z,12.20
2024-04-18T22:52:06.932Z,12.10
2024-04-18T22:54:34.731Z,12.10
2024-04-18T22:57:20.309Z,12.10
2024-04-18T22:59:49.363Z,12.10
2024-04-18T23:02:19.840Z,12.10
2024-04-18T23:04:50.947Z,12.10
2024-04-18T23:07:21.525Z,12.10
2024-04-18T23:09:49.221Z,12.10
2024-04-18T23:12:19.552Z,12.10
2024-04-18T23:14:50.536Z,12.10
2024-04-18T23:17:18.344Z,12.10
2024-04-18T23:19:48.667Z,12.10
2024-04-18T23:22:19.947Z,12.10
2024-04-18T23:24:51.385Z,12.10
2024-04-18T23:27:19.065Z,12.10
2024-04-18T23:29:49.334Z,12.10
2024-04-18T23:32:17.040Z,12.00
2024-04-18T23:34:47.440Z,12.00
2024-04-18T23:37:15.511Z,12.00
2024-04-18T23:39:48.815Z,12.00
2024-04-18T23:42:16.779Z,12.00
2024-04-18T23:44:47.122Z,12.00
2024-04-18T23:47:14.791Z,11.90
2024-04-18T23:49:45.794Z,12.00
2024-04-18T23:52:13.766Z,11.70
2024-04-18T23:54:46.189Z,11.90
2024-04-18T23:57:16.774Z,11.90
2024-04-18T23:59:47.385Z,11.90
